createdAt,value
2018-10-16T00:02:09.373Z,50.57
2018-10-16T00:04:36.606Z,35.27
2018-10-16T00:07:03.932Z,38.60
2018-10-16T00:09:31.085Z,32.57
2018-10-16T00:12:01.485Z,33.00
2018-10-16T00:14:29.384Z,35.20
2018-10-16T00:16:56.546Z,32.87
2018-10-16T00:19:23.914Z,40.10
2018-10-16T00:21:51.108Z,40.50
2018-10-16T00:24:18.411Z,32.43
2018-10-16T00:26:45.689Z,37.60
2018-10-16T00:29:13.178Z,30.17
2018-10-16T00:31:40.417Z,37.47
2018-10-16T00:34:08.261Z,29.10
2018-10-16T00:36:36.339Z,31.53
2018-10-16T00:39:04.365Z,33.63
2018-10-16T00:41:31.600Z,41.53
2018-10-16T00:43:58.899Z,37.33
2018-10-16T00:46:26.117Z,38.83
2018-10-16T00:48:53.280Z,34.40
2018-10-16T00:51:20.741Z,34.57
2018-10-16T00:53:47.877Z,32.60
2018-10-16T00:56:15.020Z,43.83
2018-10-16T00:58:42.431Z,32.30
2018-10-16T01:01:09.605Z,43.83
2018-10-16T01:03:36.755Z,36.73
2018-10-16T01:06:04.049Z,34.40
2018-10-16T01:08:31.466Z,39.43
2018-10-16T01:10:58.627Z,31.43
2018-10-16T01:13:26.356Z,37.77
2018-10-16T01:15:53.572Z,40.63
2018-10-16T01:18:20.728Z,39.37
2018-10-16T01:20:48.181Z,38.90
2018-10-16T01:23:15.350Z,36.53
2018-10-16T01:25:42.492Z,30.27
2018-10-16T01:28:09.641Z,32.37
2018-10-16T01:30:36.833Z,42.60
2018-10-16T01:33:04.128Z,36.03
2018-10-16T01:35:31.291Z,35.63
2018-10-16T01:37:58.447Z,40.10
2018-10-16T01:40:25.587Z,31.37
2018-10-16T01:42:53.102Z,34.30
2018-10-16T01:45:20.242Z,36.33
2018-10-16T01:47:47.438Z,44.33
2018-10-16T01:50:14.680Z,30.77
2018-10-16T01:52:41.864Z,57.33
2018-10-16T01:55:09.103Z,38.37
2018-10-16T01:57:36.427Z,38.30
2018-10-16T02:00:03.684Z,38.60
2018-10-16T02:02:30.887Z,34.63
2018-10-16T02:04:58.051Z,39.47
2018-10-16T02:07:25.216Z,38.80
2018-10-16T02:09:52.378Z,35.73
2018-10-16T02:12:19.547Z,35.63
2018-10-16T02:14:46.732Z,42.57
2018-10-16T02:17:14.256Z,36.67
2018-10-16T02:19:41.636Z,34.63
2018-10-16T02:22:08.788Z,36.33
2018-10-16T02:24:35.971Z,38.47
2018-10-16T02:27:03.403Z,33.93
2018-10-16T02:29:30.560Z,32.77
2018-10-16T02:31:57.715Z,34.20
2018-10-16T02:34:24.926Z,34.00
2018-10-16T02:36:52.081Z,32.33
2018-10-16T02:39:19.333Z,35.30
2018-10-16T02:41:46.527Z,33.10
2018-10-16T02:44:13.706Z,33.33
2018-10-16T02:46:40.912Z,34.33
2018-10-16T02:49:08.495Z,36.97
2018-10-16T02:51:35.900Z,33.17
2018-10-16T02:54:03.055Z,35.00
2018-10-16T02:56:30.221Z,37.50
2018-10-16T02:58:57.367Z,31.10
2018-10-16T03:01:24.515Z,31.10
2018-10-16T03:03:51.944Z,34.20
2018-10-16T03:06:19.186Z,33.43
2018-10-16T03:08:46.373Z,31.00
2018-10-16T03:11:13.559Z,31.97
2018-10-16T03:13:40.700Z,35.70
2018-10-16T03:16:07.869Z,30.30
2018-10-16T03:18:35.287Z,31.17
2018-10-16T03:21:02.441Z,33.70
2018-10-16T03:23:29.596Z,28.87
2018-10-16T03:25:56.760Z,37.03
2018-10-16T03:28:23.962Z,38.20
2018-10-16T03:30:51.123Z,35.43
2018-10-16T03:33:18.569Z,34.80
2018-10-16T03:35:45.715Z,31.67
2018-10-16T03:38:13.075Z,34.03
2018-10-16T03:40:40.500Z,32.63
2018-10-16T03:43:07.648Z,29.90
2018-10-16T03:45:34.804Z,36.13
2018-10-16T03:48:02.231Z,33.10
2018-10-16T03:50:29.492Z,33.87
2018-10-16T03:52:56.630Z,32.57
2018-10-16T03:55:23.784Z,33.43
2018-10-16T03:57:50.941Z,35.00
2018-10-16T04:00:18.099Z,35.93
2018-10-16T04:02:45.655Z,42.20
2018-10-16T04:05:12.800Z,39.50
2018-10-16T04:07:39.895Z,42.63
2018-10-16T04:10:07.592Z,36.33
2018-10-16T04:12:34.732Z,41.67
2018-10-16T04:15:01.785Z,34.63
2018-10-16T04:17:28.811Z,38.07
2018-10-16T04:19:55.903Z,34.73
2018-10-16T04:22:22.946Z,41.07
2018-10-16T04:24:50.020Z,32.60
2018-10-16T04:27:17.047Z,36.80
2018-10-16T04:29:44.068Z,36.87
2018-10-16T04:32:11.141Z,37.30
2018-10-16T04:34:38.160Z,48.30
2018-10-16T04:37:05.175Z,33.10
2018-10-16T04:39:32.672Z,45.33
2018-10-16T04:41:59.703Z,35.00
2018-10-16T04:44:26.728Z,34.43
2018-10-16T04:46:53.755Z,32.17
2018-10-16T04:49:20.868Z,33.57
2018-10-16T04:51:47.936Z,28.90
2018-10-16T04:54:14.964Z,39.47
2018-10-16T04:56:41.984Z,33.47
2018-10-16T04:59:09.015Z,35.27
2018-10-16T05:01:36.351Z,36.37
2018-10-16T05:04:03.573Z,36.40
2018-10-16T05:06:30.652Z,32.83
2018-10-16T05:08:57.939Z,31.50
2018-10-16T05:11:24.971Z,33.03
2018-10-16T05:13:52.020Z,35.03
2018-10-16T05:16:19.390Z,31.23
2018-10-16T05:18:46.415Z,33.50
2018-10-16T05:21:13.445Z,30.87
2018-10-16T05:23:40.532Z,37.77
2018-10-16T05:26:07.675Z,34.27
2018-10-16T05:28:34.678Z,33.47
2018-10-16T05:31:01.797Z,45.93
2018-10-16T05:33:28.831Z,45.23
2018-10-16T05:35:55.859Z,40.33
2018-10-16T05:38:22.911Z,36.60
2018-10-16T05:40:49.935Z,47.30
2018-10-16T05:43:16.960Z,57.77
2018-10-16T05:45:45.155Z,48.07
2018-10-16T05:48:12.176Z,54.03
2018-10-16T05:50:39.275Z,57.60
2018-10-16T05:53:06.640Z,46.33
2018-10-16T05:55:33.666Z,37.57
2018-10-16T05:58:00.868Z,34.53
2018-10-16T06:00:39.588Z,35.40
2018-10-16T06:03:06.876Z,41.00
2018-10-16T06:05:34.039Z,39.73
2018-10-16T06:08:01.104Z,46.23
2018-10-16T06:10:28.152Z,38.93
2018-10-16T06:12:55.171Z,41.70
2018-10-16T06:15:22.569Z,54.10
2018-10-16T06:17:49.660Z,64.33
2018-10-16T06:20:16.693Z,48.03
2018-10-16T06:22:43.755Z,39.10
2018-10-16T06:25:10.989Z,45.70
2018-10-16T06:27:38.958Z,51.20
2018-10-16T06:30:06.603Z,44.93
2018-10-16T06:32:33.648Z,44.23
2018-10-16T06:35:01.020Z,44.20
2018-10-16T06:37:28.380Z,41.80
2018-10-16T06:39:55.404Z,55.83
2018-10-16T06:42:22.767Z,45.77
2018-10-16T06:44:50.066Z,45.83
2018-10-16T06:47:17.130Z,51.67
2018-10-16T06:49:44.172Z,49.50
2018-10-16T06:52:11.559Z,42.73
2018-10-16T06:54:38.635Z,56.30
2018-10-16T06:57:05.631Z,48.17
2018-10-16T06:59:33.360Z,57.10
2018-10-16T07:02:00.410Z,80.73
2018-10-16T07:04:27.502Z,131.67
2018-10-16T07:06:54.933Z,92.17
2018-10-16T07:09:22.333Z,101.10
2018-10-16T07:11:49.355Z,62.97
2018-10-16T07:14:16.736Z,59.73
2018-10-16T07:16:43.771Z,48.37
2018-10-16T07:19:10.835Z,70.03
2018-10-16T07:21:38.182Z,81.97
2018-10-16T07:24:05.557Z,50.27
2018-10-16T07:26:32.631Z,53.43
2018-10-16T07:28:59.947Z,71.80
2018-10-16T07:31:27.004Z,45.07
2018-10-16T07:33:54.044Z,50.87
2018-10-16T07:36:21.397Z,46.23
2018-10-16T07:38:48.575Z,59.40
2018-10-16T07:41:15.609Z,45.03
2018-10-16T07:43:42.648Z,57.67
2018-10-16T07:46:09.676Z,42.20
2018-10-16T07:48:36.774Z,44.27
2018-10-16T07:51:04.297Z,54.80
2018-10-16T07:53:31.351Z,62.63
2018-10-16T07:55:58.384Z,55.00
2018-10-16T07:58:25.767Z,53.83
2018-10-16T08:00:52.806Z,47.57
2018-10-16T08:03:19.843Z,46.63
2018-10-16T08:05:46.889Z,50.27
2018-10-16T08:08:13.921Z,42.73
2018-10-16T08:10:40.947Z,57.00
2018-10-16T08:13:07.995Z,51.03
2018-10-16T08:15:35.048Z,41.63
2018-10-16T08:18:02.120Z,45.67
2018-10-16T08:20:29.290Z,45.10
2018-10-16T08:22:56.324Z,40.90
2018-10-16T08:25:23.444Z,45.40
2018-10-16T08:27:50.515Z,39.40
2018-10-16T08:30:17.566Z,42.10
2018-10-16T08:32:44.680Z,48.80
2018-10-16T08:35:11.988Z,52.20
2018-10-16T08:39:49.388Z,41.60
2018-10-16T08:43:25.056Z,54.40
2018-10-16T08:45:57.908Z,41.00
2018-10-16T08:48:31.027Z,45.07
2018-10-16T08:51:03.818Z,45.57
2018-10-16T08:53:30.911Z,44.87
2018-10-16T08:55:57.968Z,43.97
2018-10-16T08:58:25.095Z,49.40
2018-10-16T09:00:53.964Z,44.57
2018-10-16T09:03:21.173Z,43.90
2018-10-16T09:05:48.203Z,45.60
2018-10-16T09:08:15.484Z,38.00
2018-10-16T09:10:42.524Z,54.60
2018-10-16T09:13:09.721Z,44.60
2018-10-16T09:15:37.131Z,46.60
2018-10-16T09:18:04.204Z,43.63
2018-10-16T09:20:31.233Z,38.83
2018-10-16T09:22:58.287Z,46.47
2018-10-16T09:25:25.324Z,39.93
2018-10-16T09:27:52.362Z,37.87
2018-10-16T09:30:19.421Z,41.07
2018-10-16T09:32:46.480Z,38.03
2018-10-16T09:35:13.531Z,36.30
2018-10-16T09:37:40.905Z,40.73
2018-10-16T09:40:09.506Z,35.20
2018-10-16T09:42:36.768Z,50.73
2018-10-16T09:45:03.970Z,51.87
2018-10-16T09:47:31.012Z,32.40
2018-10-16T09:49:58.048Z,32.43
2018-10-16T09:52:25.204Z,35.93
2018-10-16T09:54:52.248Z,32.53
2018-10-16T09:57:19.299Z,52.90
2018-10-16T09:59:46.383Z,27.37
2018-10-16T10:02:13.412Z,36.50
2018-10-16T10:04:40.673Z,41.13
2018-10-16T10:07:07.705Z,31.93
2018-10-16T10:09:34.784Z,30.53
2018-10-16T10:12:01.883Z,33.70
2018-10-16T10:14:28.966Z,33.90
2018-10-16T10:16:56.043Z,33.47
2018-10-16T10:19:23.089Z,26.80
2018-10-16T10:21:50.496Z,37.00
2018-10-16T10:24:17.544Z,29.17
2018-10-16T10:26:44.567Z,29.37
2018-10-16T10:29:11.868Z,27.40
2018-10-16T10:31:38.895Z,28.70
2018-10-16T10:34:05.939Z,36.33
2018-10-16T10:36:33.144Z,32.07
2018-10-16T10:39:00.174Z,28.60
2018-10-16T10:41:28.233Z,34.30
2018-10-16T10:43:55.355Z,34.80
2018-10-16T10:46:22.388Z,40.67
2018-10-16T10:48:49.556Z,23.90
2018-10-16T10:51:17.063Z,35.40
2018-10-16T10:53:43.668Z,22.80
2018-10-16T10:56:10.803Z,26.93
2018-10-16T10:58:38.094Z,40.10
2018-10-16T11:01:05.212Z,27.97
2018-10-16T11:03:32.387Z,34.67
2018-10-16T11:05:59.336Z,28.13
2018-10-16T11:08:26.367Z,28.53
2018-10-16T11:10:53.392Z,35.63
2018-10-16T11:13:20.554Z,37.00
2018-10-16T11:15:47.580Z,30.70
2018-10-16T11:18:14.712Z,30.27
2018-10-16T11:20:41.774Z,29.23
2018-10-16T11:23:08.812Z,26.80
2018-10-16T11:25:35.839Z,27.10
2018-10-16T11:28:03.676Z,29.50
2018-10-16T11:30:30.732Z,32.30
2018-10-16T11:32:57.765Z,32.57
2018-10-16T11:35:24.829Z,32.63
2018-10-16T11:37:51.868Z,21.40
2018-10-16T11:40:19.024Z,25.53
2018-10-16T11:42:46.419Z,25.30
2018-10-16T11:45:13.496Z,25.63
2018-10-16T11:47:40.512Z,32.10
2018-10-16T11:50:08.649Z,30.30
2018-10-16T11:52:35.640Z,31.83
2018-10-16T11:55:02.690Z,37.33
2018-10-16T11:57:29.772Z,29.10
2018-10-16T11:59:56.801Z,34.10
2018-10-16T12:02:23.907Z,27.10
2018-10-16T12:04:51.143Z,24.43
2018-10-16T12:07:18.483Z,28.63
2018-10-16T12:09:45.612Z,27.00
2018-10-16T12:12:13.175Z,34.33
2018-10-16T12:14:40.311Z,34.43
2018-10-16T12:17:14.643Z,27.13
2018-10-16T12:19:45.155Z,38.87
2018-10-16T12:22:12.183Z,28.70
2018-10-16T12:24:39.256Z,33.73
2018-10-16T12:27:06.392Z,28.63
2018-10-16T12:29:33.371Z,37.17
2018-10-16T12:32:00.515Z,40.07
2018-10-16T12:34:27.531Z,26.70
2018-10-16T12:36:55.239Z,25.47
2018-10-16T12:39:22.278Z,28.37
2018-10-16T12:41:49.303Z,19.90
2018-10-16T12:44:16.471Z,43.33
2018-10-16T12:46:43.727Z,35.73
2018-10-16T12:49:10.776Z,31.70
2018-10-16T12:51:37.898Z,34.03
2018-10-16T12:54:05.354Z,38.03
2018-10-16T12:56:32.409Z,25.13
2018-10-16T12:58:59.479Z,30.77
2018-10-16T13:01:26.521Z,23.10
2018-10-16T13:03:53.558Z,31.10
2018-10-16T13:06:20.582Z,24.53
2018-10-16T13:08:47.984Z,24.60
2018-10-16T13:11:15.062Z,37.80
2018-10-16T13:13:42.074Z,31.40
2018-10-16T13:16:09.217Z,26.97
2018-10-16T13:18:36.180Z,31.13
2018-10-16T13:21:03.212Z,26.87
2018-10-16T13:23:30.359Z,36.30
2018-10-16T13:25:57.439Z,37.03
2018-10-16T13:28:24.432Z,24.20
2018-10-16T13:30:51.488Z,28.43
2018-10-16T13:33:18.535Z,32.57
2018-10-16T13:35:45.580Z,32.50
2018-10-16T13:38:13.057Z,28.77
2018-10-16T13:40:40.032Z,27.83
2018-10-16T13:43:07.152Z,36.17
2018-10-16T13:45:34.352Z,35.00
2018-10-16T13:48:01.377Z,35.43
2018-10-16T13:50:28.418Z,39.23
2018-10-16T13:52:55.487Z,23.00
2018-10-16T13:55:22.604Z,21.67
2018-10-16T13:57:49.632Z,26.70
2018-10-16T14:00:18.472Z,27.53
2018-10-16T14:02:46.653Z,24.40
2018-10-16T14:05:13.795Z,24.93
2018-10-16T14:07:41.152Z,27.37
2018-10-16T14:10:08.632Z,23.27
2018-10-16T14:12:36.096Z,25.53
2018-10-16T14:15:04.004Z,28.00
2018-10-16T14:17:31.112Z,26.80
2018-10-16T14:19:58.279Z,28.07
2018-10-16T14:22:25.332Z,34.13
2018-10-16T14:24:52.361Z,26.30
2018-10-16T14:27:19.388Z,29.87
2018-10-16T14:29:46.418Z,30.57
2018-10-16T14:32:13.547Z,36.03
2018-10-16T14:34:40.620Z,27.97
2018-10-16T14:37:08.045Z,30.90
2018-10-16T14:39:35.069Z,34.70
2018-10-16T14:42:02.096Z,41.57
2018-10-16T14:44:29.132Z,31.57
2018-10-16T14:46:56.152Z,28.43
2018-10-16T14:49:23.171Z,29.93
2018-10-16T14:51:50.293Z,36.43
2018-10-16T14:54:17.375Z,32.33
2018-10-16T14:56:44.402Z,36.00
2018-10-16T14:59:11.718Z,31.13
2018-10-16T15:01:38.787Z,30.03
2018-10-16T15:04:05.918Z,32.00
2018-10-16T15:06:33.240Z,31.10
2018-10-16T15:09:00.252Z,27.33
2018-10-16T15:11:27.267Z,35.57
2018-10-16T15:13:54.344Z,34.30
2018-10-16T15:16:21.379Z,35.93
2018-10-16T15:18:48.385Z,35.67
2018-10-16T15:21:15.724Z,30.50
2018-10-16T15:23:42.793Z,44.63
2018-10-16T15:26:09.884Z,42.53
2018-10-16T15:28:37.180Z,41.97
2018-10-16T15:31:04.283Z,32.73
2018-10-16T15:33:31.303Z,31.20
2018-10-16T15:35:58.727Z,31.60
2018-10-16T15:38:25.828Z,32.17
2018-10-16T15:40:52.880Z,35.83
2018-10-16T15:43:20.189Z,38.67
2018-10-16T15:45:47.215Z,56.20
2018-10-16T15:48:14.386Z,54.37
2018-10-16T15:50:41.654Z,51.50
2018-10-16T15:53:08.674Z,41.93
2018-10-16T15:55:35.692Z,38.20
2018-10-16T15:58:02.754Z,40.40
2018-10-16T16:00:29.902Z,42.13
2018-10-16T16:02:56.948Z,44.67
2018-10-16T16:05:24.335Z,37.70
2018-10-16T16:07:51.375Z,40.30
2018-10-16T16:10:18.489Z,50.40
2018-10-16T16:12:45.596Z,44.00
2018-10-16T16:15:13.273Z,46.67
2018-10-16T16:17:40.500Z,49.87
2018-10-16T16:20:08.620Z,45.23
2018-10-16T16:22:35.934Z,54.20
2018-10-16T16:25:03.380Z,48.87
2018-10-16T16:27:30.748Z,51.90
2018-10-16T16:29:57.877Z,41.77
2018-10-16T16:32:24.996Z,49.73
2018-10-16T16:34:52.065Z,42.13
2018-10-16T16:37:19.076Z,45.83
2018-10-16T16:39:46.411Z,47.60
2018-10-16T16:42:13.761Z,44.23
2018-10-16T16:44:40.723Z,55.80
2018-10-16T16:47:07.910Z,58.30
2018-10-16T16:49:35.797Z,56.23
2018-10-16T16:52:02.907Z,61.40
2018-10-16T16:54:29.904Z,68.13
2018-10-16T16:56:57.352Z,57.77
2018-10-16T16:59:24.472Z,63.10
2018-10-16T17:01:51.501Z,50.17
2018-10-16T17:04:18.807Z,81.87
2018-10-16T17:06:45.915Z,67.30
2018-10-16T17:09:12.932Z,66.87
2018-10-16T17:11:39.976Z,70.60
2018-10-16T17:14:07.450Z,97.27
2018-10-16T17:16:34.574Z,86.57
2018-10-16T17:19:02.660Z,78.53
2018-10-16T17:21:29.779Z,96.93
2018-10-16T17:23:56.895Z,71.23
2018-10-16T17:26:24.636Z,84.43
2018-10-16T17:28:51.465Z,75.73
2018-10-16T17:31:18.585Z,60.17
2018-10-16T17:33:45.629Z,76.17
2018-10-16T17:36:12.847Z,69.43
2018-10-16T17:38:40.940Z,61.67
2018-10-16T17:41:08.255Z,87.27
2018-10-16T17:43:35.283Z,63.33
2018-10-16T17:46:02.329Z,65.50
2018-10-16T17:48:29.647Z,70.67
2018-10-16T17:50:56.680Z,56.17
2018-10-16T17:53:23.700Z,69.50
2018-10-16T17:55:50.740Z,67.50
2018-10-16T17:58:17.757Z,78.60
2018-10-16T18:00:44.856Z,67.00
2018-10-16T18:03:12.159Z,55.60
2018-10-16T18:05:39.172Z,63.83
2018-10-16T18:08:06.343Z,56.60
2018-10-16T18:10:33.407Z,59.13
2018-10-16T18:13:00.487Z,58.17
2018-10-16T18:15:27.496Z,56.37
2018-10-16T18:17:54.675Z,60.93
2018-10-16T18:20:21.744Z,60.33
2018-10-16T18:22:48.803Z,69.17
2018-10-16T18:25:16.189Z,64.63
2018-10-16T18:27:44.228Z,55.10
2018-10-16T18:30:11.653Z,57.10
2018-10-16T18:32:39.039Z,66.80
2018-10-16T18:35:06.153Z,77.00
2018-10-16T18:37:33.235Z,72.70
2018-10-16T18:40:00.774Z,69.70
2018-10-16T18:42:27.847Z,63.67
2018-10-16T18:44:54.894Z,59.23
2018-10-16T18:47:22.416Z,58.90
2018-10-16T18:49:49.444Z,54.30
2018-10-16T18:52:16.487Z,60.73
2018-10-16T18:54:43.948Z,58.23
2018-10-16T18:57:11.170Z,64.07
2018-10-16T18:59:38.151Z,53.77
2018-10-16T19:02:05.663Z,47.10
2018-10-16T19:04:32.773Z,52.73
2018-10-16T19:06:59.788Z,60.53
2018-10-16T19:09:26.961Z,45.80
2018-10-16T19:11:54.029Z,69.83
2018-10-16T19:14:21.092Z,75.73
2018-10-16T19:16:48.983Z,56.03
2018-10-16T19:19:16.035Z,63.00
2018-10-16T19:21:43.067Z,57.60
2018-10-16T19:24:10.500Z,65.13
2018-10-16T19:26:37.532Z,61.30
2018-10-16T19:29:05.698Z,55.97
2018-10-16T19:31:33.254Z,71.90
2018-10-16T19:34:00.345Z,66.30
2018-10-16T19:36:27.427Z,76.23
2018-10-16T19:38:54.846Z,58.90
2018-10-16T19:41:21.904Z,68.00
2018-10-16T19:43:49.249Z,74.43
2018-10-16T19:46:16.539Z,75.17
2018-10-16T19:48:43.639Z,71.30
2018-10-16T19:51:10.786Z,88.37
2018-10-16T19:53:37.767Z,87.57
2018-10-16T19:56:05.492Z,82.50
2018-10-16T19:58:32.564Z,82.07
2018-10-16T20:01:00.060Z,66.10
2018-10-16T20:03:27.080Z,85.37
2018-10-16T20:05:54.100Z,62.83
2018-10-16T20:08:21.381Z,59.73
2018-10-16T20:10:48.428Z,68.20
2018-10-16T20:13:15.481Z,82.07
2018-10-16T20:15:42.819Z,61.13
2018-10-16T20:18:09.888Z,64.63
2018-10-16T20:20:36.969Z,58.90
2018-10-16T20:23:04.159Z,51.60
2018-10-16T20:25:31.212Z,76.33
2018-10-16T20:27:58.359Z,69.10
2018-10-16T20:30:25.435Z,68.67
2018-10-16T20:32:52.464Z,71.33
2018-10-16T20:35:19.497Z,66.53
2018-10-16T20:37:46.554Z,56.63
2018-10-16T20:40:13.588Z,54.53
2018-10-16T20:42:41.176Z,57.13
2018-10-16T20:45:09.219Z,52.90
2018-10-16T20:47:36.725Z,61.27
2018-10-16T20:50:04.052Z,49.30
2018-10-16T20:52:31.558Z,49.77
2018-10-16T20:54:58.678Z,53.03
2018-10-16T20:57:25.969Z,51.30
2018-10-16T20:59:55.495Z,57.80
2018-10-16T21:02:22.611Z,60.10
2018-10-16T21:04:50.081Z,59.50
2018-10-16T21:07:17.328Z,47.80
2018-10-16T21:09:44.540Z,54.93
2018-10-16T21:12:11.682Z,45.90
2018-10-16T21:14:39.009Z,55.97
2018-10-16T21:17:06.339Z,44.00
2018-10-16T21:19:33.444Z,55.17
2018-10-16T21:22:00.923Z,55.93
2018-10-16T21:24:28.077Z,53.30
2018-10-16T21:26:59.016Z,44.30
2018-10-16T21:29:26.084Z,47.53
2018-10-16T21:31:53.344Z,61.90
2018-10-16T21:34:21.539Z,53.93
2018-10-16T21:36:48.906Z,49.37
2018-10-16T21:39:16.042Z,49.93
2018-10-16T21:41:43.037Z,57.03
2018-10-16T21:44:10.447Z,49.17
2018-10-16T21:46:37.463Z,44.23
2018-10-16T21:49:04.862Z,51.90
2018-10-16T21:51:32.103Z,57.80
2018-10-16T21:53:59.120Z,46.00
2018-10-16T21:56:26.144Z,42.30
2018-10-16T21:58:53.305Z,41.83
2018-10-16T22:01:24.988Z,45.27
2018-10-16T22:03:52.003Z,45.30
2018-10-16T22:06:19.367Z,47.87
2018-10-16T22:08:46.386Z,49.93
2018-10-16T22:11:13.465Z,42.03
2018-10-16T22:13:40.534Z,42.77
2018-10-16T22:16:07.559Z,46.40
2018-10-16T22:18:34.607Z,54.33
2018-10-16T22:21:02.158Z,43.97
2018-10-16T22:23:29.178Z,49.57
2018-10-16T22:25:56.191Z,62.30
2018-10-16T22:28:23.532Z,52.53
2018-10-16T22:30:50.941Z,51.03
2018-10-16T22:33:18.075Z,49.47
2018-10-16T22:35:45.236Z,46.60
2018-10-16T22:38:12.352Z,46.17
2018-10-16T22:40:39.379Z,64.50
2018-10-16T22:43:06.740Z,53.10
2018-10-16T22:45:33.743Z,46.23
2018-10-16T22:48:00.763Z,51.17
2018-10-16T22:50:28.048Z,61.13
2018-10-16T22:52:55.105Z,58.07
2018-10-16T22:55:22.111Z,57.67
2018-10-16T22:57:49.532Z,70.43
2018-10-16T23:00:17.639Z,54.00
2018-10-16T23:02:45.595Z,55.77
2018-10-16T23:05:12.676Z,48.97
2018-10-16T23:07:39.798Z,62.10
2018-10-16T23:10:06.850Z,51.33
2018-10-16T23:12:34.167Z,55.60
2018-10-16T23:15:01.184Z,60.07
2018-10-16T23:17:28.206Z,59.47
2018-10-16T23:19:55.611Z,53.20
2018-10-16T23:22:22.719Z,60.37
2018-10-16T23:24:49.742Z,59.57
2018-10-16T23:27:17.065Z,57.60
2018-10-16T23:29:44.087Z,58.77
2018-10-16T23:32:11.204Z,57.93
2018-10-16T23:34:38.243Z,46.70
2018-10-16T23:37:05.367Z,52.10
2018-10-16T23:39:32.309Z,57.73
2018-10-16T23:41:59.657Z,52.73
2018-10-16T23:44:27.039Z,60.00
2018-10-16T23:46:54.063Z,67.60
2018-10-16T23:49:21.410Z,80.63
2018-10-16T23:51:48.559Z,62.33
2018-10-16T23:54:15.594Z,47.07
2018-10-16T23:56:42.867Z,51.73
2018-10-16T23:59:09.967Z,66.90
